Flugplatz Peenemünde

Für EDCP sind keine METAR/TAF Berichte vorhanden.
Es werden die Flugwettermeldungen vom Flugplatz Heringsdorf in 39 km Entfernung angezeigt.

Prognose für EDAH

vom 23.05. um 14:00 UTC

Zwischen 15:00 UTC und 16:00 UTC

Wind 7 kt aus 330°

Sichtweite 10 km oder mehr

keine signifikanten Wettererscheinungen

keine Wolken


Zwischen 16:00 und 19:00 UTC übergehend zu

variable Windrichtung mit 2 kt

Sichtweite 10 km oder mehr

keine signifikanten Wettererscheinungen

keine Wolken

TAF EDAH 231400Z 2315/2324 33007KT CAVOK BECMG 2316/2319 VRB02KT
Impressum